sensor_id;sensor_type;location;lat;lon;timestamp;P1;durP1;ratioP1;P2;durP2;ratioP2
38715;SDS011;24833;49.324;8.694;2023-08-30T00:01:23;5.53;;;2.40;;
38715;SDS011;24833;49.324;8.694;2023-08-30T00:03:50;3.42;;;2.22;;
38715;SDS011;24833;49.324;8.694;2023-08-30T00:06:17;2.60;;;2.40;;
38715;SDS011;24833;49.324;8.694;2023-08-30T00:08:45;2.33;;;2.20;;
38715;SDS011;24833;49.324;8.694;2023-08-30T00:11:12;3.13;;;2.55;;
38715;SDS011;24833;49.324;8.694;2023-08-30T00:13:40;3.17;;;2.75;;
38715;SDS011;24833;49.324;8.694;2023-08-30T00:16:08;5.05;;;3.35;;
38715;SDS011;24833;49.324;8.694;2023-08-30T00:18:35;4.82;;;3.95;;
38715;SDS011;24833;49.324;8.694;2023-08-30T00:21:02;4.10;;;3.50;;
38715;SDS011;24833;49.324;8.694;2023-08-30T00:23:29;4.22;;;3.83;;
38715;SDS011;24833;49.324;8.694;2023-08-30T00:25:56;4.68;;;3.42;;
38715;SDS011;24833;49.324;8.694;2023-08-30T00:28:23;4.55;;;3.80;;
38715;SDS011;24833;49.324;8.694;2023-08-30T00:30:54;5.32;;;4.32;;
38715;SDS011;24833;49.324;8.694;2023-08-30T00:33:22;5.15;;;3.92;;
38715;SDS011;24833;49.324;8.694;2023-08-30T00:35:56;4.32;;;3.92;;
38715;SDS011;24833;49.324;8.694;2023-08-30T00:38:25;4.60;;;3.72;;
38715;SDS011;24833;49.324;8.694;2023-08-30T00:40:54;4.57;;;4.17;;
38715;SDS011;24833;49.324;8.694;2023-08-30T00:43:22;4.72;;;3.45;;
38715;SDS011;24833;49.324;8.694;2023-08-30T00:45:49;3.80;;;3.50;;
38715;SDS011;24833;49.324;8.694;2023-08-30T00:48:19;3.40;;;3.10;;
38715;SDS011;24833;49.324;8.694;2023-08-30T00:50:47;4.35;;;3.15;;
38715;SDS011;24833;49.324;8.694;2023-08-30T00:53:14;3.22;;;2.90;;
38715;SDS011;24833;49.324;8.694;2023-08-30T00:55:43;4.15;;;2.72;;
38715;SDS011;24833;49.324;8.694;2023-08-30T00:58:10;3.00;;;2.70;;
38715;SDS011;24833;49.324;8.694;2023-08-30T01:00:38;3.80;;;3.03;;
38715;SDS011;24833;49.324;8.694;2023-08-30T01:03:09;3.45;;;3.15;;
38715;SDS011;24833;49.324;8.694;2023-08-30T01:05:36;3.60;;;3.08;;
38715;SDS011;24833;49.324;8.694;2023-08-30T01:08:03;4.22;;;3.30;;
38715;SDS011;24833;49.324;8.694;2023-08-30T01:10:38;4.43;;;3.17;;
38715;SDS011;24833;49.324;8.694;2023-08-30T01:13:19;3.13;;;2.83;;
38715;SDS011;24833;49.324;8.694;2023-08-30T01:15:47;4.22;;;3.20;;
38715;SDS011;24833;49.324;8.694;2023-08-30T01:18:17;2.97;;;2.78;;
38715;SDS011;24833;49.324;8.694;2023-08-30T01:20:47;3.90;;;2.70;;
38715;SDS011;24833;49.324;8.694;2023-08-30T01:26:04;3.53;;;3.10;;
38715;SDS011;24833;49.324;8.694;2023-08-30T01:28:41;3.95;;;3.60;;
38715;SDS011;24833;49.324;8.694;2023-08-30T01:31:08;3.72;;;3.15;;
38715;SDS011;24833;49.324;8.694;2023-08-30T01:33:38;3.75;;;3.35;;
38715;SDS011;24833;49.324;8.694;2023-08-30T01:36:06;3.45;;;3.15;;
38715;SDS011;24833;49.324;8.694;2023-08-30T01:38:33;4.90;;;3.47;;
38715;SDS011;24833;49.324;8.694;2023-08-30T01:41:01;4.35;;;3.97;;
38715;SDS011;24833;49.324;8.694;2023-08-30T01:43:29;3.50;;;3.20;;
38715;SDS011;24833;49.324;8.694;2023-08-30T01:45:58;3.40;;;3.10;;
38715;SDS011;24833;49.324;8.694;2023-08-30T01:48:28;3.27;;;2.93;;
38715;SDS011;24833;49.324;8.694;2023-08-30T01:50:56;4.72;;;4.15;;
38715;SDS011;24833;49.324;8.694;2023-08-30T01:53:26;4.43;;;3.90;;
38715;SDS011;24833;49.324;8.694;2023-08-30T01:55:54;4.32;;;3.75;;
38715;SDS011;24833;49.324;8.694;2023-08-30T01:58:21;3.92;;;3.45;;
38715;SDS011;24833;49.324;8.694;2023-08-30T02:00:48;4.75;;;3.53;;
38715;SDS011;24833;49.324;8.694;2023-08-30T02:03:15;3.90;;;3.53;;
38715;SDS011;24833;49.324;8.694;2023-08-30T02:08:37;3.83;;;3.53;;
38715;SDS011;24833;49.324;8.694;2023-08-30T02:11:11;3.80;;;3.33;;
38715;SDS011;24833;49.324;8.694;2023-08-30T02:13:45;4.90;;;3.70;;
38715;SDS011;24833;49.324;8.694;2023-08-30T02:16:13;3.80;;;3.45;;
38715;SDS011;24833;49.324;8.694;2023-08-30T02:18:41;4.32;;;3.72;;
38715;SDS011;24833;49.324;8.694;2023-08-30T02:21:08;6.07;;;4.50;;
38715;SDS011;24833;49.324;8.694;2023-08-30T02:23:36;5.53;;;4.30;;
38715;SDS011;24833;49.324;8.694;2023-08-30T02:26:03;7.20;;;4.18;;
38715;SDS011;24833;49.324;8.694;2023-08-30T02:28:30;4.10;;;3.50;;
38715;SDS011;24833;49.324;8.694;2023-08-30T02:30:57;4.25;;;3.85;;
38715;SDS011;24833;49.324;8.694;2023-08-30T02:33:24;4.50;;;4.03;;
38715;SDS011;24833;49.324;8.694;2023-08-30T02:35:52;3.92;;;3.63;;
38715;SDS011;24833;49.324;8.694;2023-08-30T02:38:20;5.72;;;5.13;;
38715;SDS011;24833;49.324;8.694;2023-08-30T02:40:47;5.63;;;4.25;;
38715;SDS011;24833;49.324;8.694;2023-08-30T02:43:15;4.88;;;4.25;;
38715;SDS011;24833;49.324;8.694;2023-08-30T02:45:43;5.97;;;4.32;;
38715;SDS011;24833;49.324;8.694;2023-08-30T02:48:10;6.00;;;4.82;;
38715;SDS011;24833;49.324;8.694;2023-08-30T02:50:40;4.75;;;4.28;;
38715;SDS011;24833;49.324;8.694;2023-08-30T02:53:07;4.32;;;3.80;;
38715;SDS011;24833;49.324;8.694;2023-08-30T02:55:35;4.60;;;4.20;;
38715;SDS011;24833;49.324;8.694;2023-08-30T02:58:02;5.00;;;4.50;;
38715;SDS011;24833;49.324;8.694;2023-08-30T03:00:29;4.95;;;4.55;;
38715;SDS011;24833;49.324;8.694;2023-08-30T03:02:57;4.47;;;4.10;;
38715;SDS011;24833;49.324;8.694;2023-08-30T03:05:24;4.53;;;4.13;;
38715;SDS011;24833;49.324;8.694;2023-08-30T03:07:52;4.38;;;3.97;;
38715;SDS011;24833;49.324;8.694;2023-08-30T03:10:22;3.92;;;3.58;;
38715;SDS011;24833;49.324;8.694;2023-08-30T03:12:49;4.72;;;4.18;;
38715;SDS011;24833;49.324;8.694;2023-08-30T03:15:17;5.43;;;4.18;;
38715;SDS011;24833;49.324;8.694;2023-08-30T03:17:44;4.93;;;4.50;;
38715;SDS011;24833;49.324;8.694;2023-08-30T03:20:12;5.47;;;4.78;;
38715;SDS011;24833;49.324;8.694;2023-08-30T03:22:39;5.32;;;4.93;;
38715;SDS011;24833;49.324;8.694;2023-08-30T03:25:06;5.15;;;4.60;;
38715;SDS011;24833;49.324;8.694;2023-08-30T03:27:36;5.97;;;4.73;;
38715;SDS011;24833;49.324;8.694;2023-08-30T03:30:04;5.55;;;5.05;;
38715;SDS011;24833;49.324;8.694;2023-08-30T03:32:33;5.63;;;4.90;;
38715;SDS011;24833;49.324;8.694;2023-08-30T03:35:00;5.60;;;5.10;;
38715;SDS011;24833;49.324;8.694;2023-08-30T03:37:29;6.93;;;4.55;;
38715;SDS011;24833;49.324;8.694;2023-08-30T03:39:56;5.85;;;5.32;;
38715;SDS011;24833;49.324;8.694;2023-08-30T03:42:23;5.82;;;5.25;;
38715;SDS011;24833;49.324;8.694;2023-08-30T03:44:50;5.55;;;4.97;;
38715;SDS011;24833;49.324;8.694;2023-08-30T03:47:18;5.60;;;4.15;;
38715;SDS011;24833;49.324;8.694;2023-08-30T03:49:45;4.95;;;4.45;;
38715;SDS011;24833;49.324;8.694;2023-08-30T03:52:12;4.95;;;4.55;;
38715;SDS011;24833;49.324;8.694;2023-08-30T03:54:40;5.07;;;4.57;;
38715;SDS011;24833;49.324;8.694;2023-08-30T03:57:07;5.75;;;4.80;;
38715;SDS011;24833;49.324;8.694;2023-08-30T03:59:34;6.35;;;5.13;;
38715;SDS011;24833;49.324;8.694;2023-08-30T04:02:01;5.57;;;5.00;;
38715;SDS011;24833;49.324;8.694;2023-08-30T04:04:28;5.05;;;4.65;;
38715;SDS011;24833;49.324;8.694;2023-08-30T04:06:55;7.50;;;5.03;;
38715;SDS011;24833;49.324;8.694;2023-08-30T04:09:22;5.03;;;4.28;;
38715;SDS011;24833;49.324;8.694;2023-08-30T04:11:49;6.18;;;4.40;;
38715;SDS011;24833;49.324;8.694;2023-08-30T04:14:16;4.68;;;4.22;;
38715;SDS011;24833;49.324;8.694;2023-08-30T04:16:43;8.48;;;4.95;;
38715;SDS011;24833;49.324;8.694;2023-08-30T04:19:10;4.47;;;4.07;;
38715;SDS011;24833;49.324;8.694;2023-08-30T04:21:37;4.97;;;3.80;;
38715;SDS011;24833;49.324;8.694;2023-08-30T04:24:04;3.60;;;3.30;;
38715;SDS011;24833;49.324;8.694;2023-08-30T04:26:32;5.00;;;3.80;;
38715;SDS011;24833;49.324;8.694;2023-08-30T04:29:00;4.95;;;4.30;;
38715;SDS011;24833;49.324;8.694;2023-08-30T04:31:29;4.65;;;4.22;;
38715;SDS011;24833;49.324;8.694;2023-08-30T04:33:56;5.47;;;4.07;;
38715;SDS011;24833;49.324;8.694;2023-08-30T04:36:23;5.13;;;4.25;;
38715;SDS011;24833;49.324;8.694;2023-08-30T04:38:50;4.53;;;3.90;;
38715;SDS011;24833;49.324;8.694;2023-08-30T04:41:28;4.15;;;3.75;;
38715;SDS011;24833;49.324;8.694;2023-08-30T04:43:56;4.45;;;4.05;;
38715;SDS011;24833;49.324;8.694;2023-08-30T04:46:23;4.80;;;4.28;;
38715;SDS011;24833;49.324;8.694;2023-08-30T04:48:51;4.05;;;3.58;;
38715;SDS011;24833;49.324;8.694;2023-08-30T04:51:18;4.25;;;3.90;;
38715;SDS011;24833;49.324;8.694;2023-08-30T04:53:45;4.72;;;4.32;;
38715;SDS011;24833;49.324;8.694;2023-08-30T04:56:12;4.60;;;4.00;;
38715;SDS011;24833;49.324;8.694;2023-08-30T04:58:40;4.28;;;3.88;;
38715;SDS011;24833;49.324;8.694;2023-08-30T05:01:09;5.55;;;4.47;;
38715;SDS011;24833;49.324;8.694;2023-08-30T05:03:41;4.38;;;4.05;;
38715;SDS011;24833;49.324;8.694;2023-08-30T05:08:42;4.57;;;4.13;;
38715;SDS011;24833;49.324;8.694;2023-08-30T05:11:09;4.72;;;4.32;;
38715;SDS011;24833;49.324;8.694;2023-08-30T05:13:37;5.40;;;4.35;;
38715;SDS011;24833;49.324;8.694;2023-08-30T05:16:04;4.82;;;4.43;;
38715;SDS011;24833;49.324;8.694;2023-08-30T05:18:32;4.75;;;4.35;;
38715;SDS011;24833;49.324;8.694;2023-08-30T05:21:00;4.80;;;4.20;;
38715;SDS011;24833;49.324;8.694;2023-08-30T05:25:58;5.63;;;4.47;;
38715;SDS011;24833;49.324;8.694;2023-08-30T05:28:25;5.68;;;5.07;;
38715;SDS011;24833;49.324;8.694;2023-08-30T05:30:52;5.57;;;4.78;;
38715;SDS011;24833;49.324;8.694;2023-08-30T05:33:30;4.57;;;4.18;;
38715;SDS011;24833;49.324;8.694;2023-08-30T05:36:35;4.40;;;4.03;;
38715;SDS011;24833;49.324;8.694;2023-08-30T05:39:20;8.00;;;3.88;;
38715;SDS011;24833;49.324;8.694;2023-08-30T05:41:54;3.88;;;3.58;;
38715;SDS011;24833;49.324;8.694;2023-08-30T05:44:21;4.25;;;3.80;;
38715;SDS011;24833;49.324;8.694;2023-08-30T05:46:48;4.63;;;4.13;;
38715;SDS011;24833;49.324;8.694;2023-08-30T05:49:15;4.53;;;3.95;;
38715;SDS011;24833;49.324;8.694;2023-08-30T05:51:43;5.85;;;4.15;;
38715;SDS011;24833;49.324;8.694;2023-08-30T05:54:12;6.65;;;4.32;;
38715;SDS011;24833;49.324;8.694;2023-08-30T05:56:39;4.32;;;3.88;;
38715;SDS011;24833;49.324;8.694;2023-08-30T05:59:08;4.43;;;4.05;;
38715;SDS011;24833;49.324;8.694;2023-08-30T06:01:35;3.78;;;3.45;;
38715;SDS011;24833;49.324;8.694;2023-08-30T06:04:02;5.15;;;4.32;;
38715;SDS011;24833;49.324;8.694;2023-08-30T06:06:30;9.13;;;4.90;;
38715;SDS011;24833;49.324;8.694;2023-08-30T06:08:58;4.93;;;4.35;;
38715;SDS011;24833;49.324;8.694;2023-08-30T06:11:25;5.05;;;4.55;;
38715;SDS011;24833;49.324;8.694;2023-08-30T06:13:52;4.63;;;4.22;;
38715;SDS011;24833;49.324;8.694;2023-08-30T06:16:19;5.15;;;4.65;;
38715;SDS011;24833;49.324;8.694;2023-08-30T06:18:47;4.45;;;3.97;;
38715;SDS011;24833;49.324;8.694;2023-08-30T06:21:14;5.30;;;3.80;;
38715;SDS011;24833;49.324;8.694;2023-08-30T06:23:40;5.97;;;4.65;;
38715;SDS011;24833;49.324;8.694;2023-08-30T06:26:08;4.97;;;4.43;;
38715;SDS011;24833;49.324;8.694;2023-08-30T06:28:35;5.00;;;4.55;;
38715;SDS011;24833;49.324;8.694;2023-08-30T06:31:04;5.65;;;5.05;;
38715;SDS011;24833;49.324;8.694;2023-08-30T06:33:31;6.43;;;4.45;;
38715;SDS011;24833;49.324;8.694;2023-08-30T06:35:58;5.43;;;4.53;;
38715;SDS011;24833;49.324;8.694;2023-08-30T06:38:25;5.03;;;4.53;;
38715;SDS011;24833;49.324;8.694;2023-08-30T06:40:52;5.70;;;4.15;;
38715;SDS011;24833;49.324;8.694;2023-08-30T06:43:19;4.80;;;4.32;;
38715;SDS011;24833;49.324;8.694;2023-08-30T06:45:47;5.88;;;4.43;;
38715;SDS011;24833;49.324;8.694;2023-08-30T06:48:14;4.93;;;4.32;;
38715;SDS011;24833;49.324;8.694;2023-08-30T06:50:41;4.30;;;3.90;;
38715;SDS011;24833;49.324;8.694;2023-08-30T06:53:08;4.55;;;4.15;;
38715;SDS011;24833;49.324;8.694;2023-08-30T06:55:35;5.28;;;3.75;;
38715;SDS011;24833;49.324;8.694;2023-08-30T06:58:04;6.00;;;4.88;;
38715;SDS011;24833;49.324;8.694;2023-08-30T07:00:32;4.50;;;4.10;;
38715;SDS011;24833;49.324;8.694;2023-08-30T07:02:59;10.15;;;5.35;;
38715;SDS011;24833;49.324;8.694;2023-08-30T07:05:26;4.53;;;4.13;;
38715;SDS011;24833;49.324;8.694;2023-08-30T07:07:53;6.68;;;5.50;;
38715;SDS011;24833;49.324;8.694;2023-08-30T07:10:20;7.13;;;4.80;;
38715;SDS011;24833;49.324;8.694;2023-08-30T07:12:47;6.20;;;4.95;;
38715;SDS011;24833;49.324;8.694;2023-08-30T07:15:15;5.72;;;4.90;;
38715;SDS011;24833;49.324;8.694;2023-08-30T07:17:43;6.35;;;5.45;;
38715;SDS011;24833;49.324;8.694;2023-08-30T07:20:13;5.47;;;4.22;;
38715;SDS011;24833;49.324;8.694;2023-08-30T07:22:40;8.35;;;4.40;;
38715;SDS011;24833;49.324;8.694;2023-08-30T07:25:07;5.53;;;4.93;;
38715;SDS011;24833;49.324;8.694;2023-08-30T07:27:36;4.65;;;4.25;;
38715;SDS011;24833;49.324;8.694;2023-08-30T07:30:03;5.00;;;4.55;;
38715;SDS011;24833;49.324;8.694;2023-08-30T07:32:31;5.43;;;4.55;;
38715;SDS011;24833;49.324;8.694;2023-08-30T07:34:58;4.95;;;4.55;;
38715;SDS011;24833;49.324;8.694;2023-08-30T07:37:25;5.03;;;4.60;;
38715;SDS011;24833;49.324;8.694;2023-08-30T07:39:52;4.45;;;3.83;;
38715;SDS011;24833;49.324;8.694;2023-08-30T07:42:20;4.72;;;4.32;;
38715;SDS011;24833;49.324;8.694;2023-08-30T07:44:47;5.65;;;4.72;;
38715;SDS011;24833;49.324;8.694;2023-08-30T07:47:14;4.25;;;3.80;;
38715;SDS011;24833;49.324;8.694;2023-08-30T07:49:41;4.78;;;4.28;;
38715;SDS011;24833;49.324;8.694;2023-08-30T07:52:08;6.15;;;4.90;;
38715;SDS011;24833;49.324;8.694;2023-08-30T07:54:37;5.35;;;4.85;;
38715;SDS011;24833;49.324;8.694;2023-08-30T07:57:05;4.93;;;4.35;;
38715;SDS011;24833;49.324;8.694;2023-08-30T07:59:34;4.53;;;4.03;;
38715;SDS011;24833;49.324;8.694;2023-08-30T08:02:03;4.75;;;4.10;;
38715;SDS011;24833;49.324;8.694;2023-08-30T08:07:01;5.82;;;5.10;;
38715;SDS011;24833;49.324;8.694;2023-08-30T08:09:30;6.15;;;5.32;;
38715;SDS011;24833;49.324;8.694;2023-08-30T08:11:58;5.63;;;5.13;;
38715;SDS011;24833;49.324;8.694;2023-08-30T08:14:26;6.13;;;5.47;;
38715;SDS011;24833;49.324;8.694;2023-08-30T08:16:53;5.07;;;4.50;;
38715;SDS011;24833;49.324;8.694;2023-08-30T08:19:20;4.63;;;4.22;;
38715;SDS011;24833;49.324;8.694;2023-08-30T08:21:51;5.55;;;4.25;;
38715;SDS011;24833;49.324;8.694;2023-08-30T08:24:21;4.40;;;3.83;;
38715;SDS011;24833;49.324;8.694;2023-08-30T08:26:48;5.35;;;3.97;;
38715;SDS011;24833;49.324;8.694;2023-08-30T08:29:15;4.25;;;3.85;;
38715;SDS011;24833;49.324;8.694;2023-08-30T08:31:42;3.78;;;3.45;;
38715;SDS011;24833;49.324;8.694;2023-08-30T08:34:10;3.50;;;3.20;;
38715;SDS011;24833;49.324;8.694;2023-08-30T08:36:38;4.53;;;3.70;;
38715;SDS011;24833;49.324;8.694;2023-08-30T08:39:09;3.08;;;2.78;;
38715;SDS011;24833;49.324;8.694;2023-08-30T08:44:09;3.35;;;3.10;;
38715;SDS011;24833;49.324;8.694;2023-08-30T08:46:37;3.75;;;3.42;;
38715;SDS011;24833;49.324;8.694;2023-08-30T08:51:40;4.60;;;3.30;;
38715;SDS011;24833;49.324;8.694;2023-08-30T08:54:09;3.55;;;3.25;;
38715;SDS011;24833;49.324;8.694;2023-08-30T08:56:38;3.45;;;3.10;;
38715;SDS011;24833;49.324;8.694;2023-08-30T08:59:06;3.30;;;2.97;;
38715;SDS011;24833;49.324;8.694;2023-08-30T09:01:35;4.57;;;2.92;;
38715;SDS011;24833;49.324;8.694;2023-08-30T09:04:09;3.15;;;2.88;;
38715;SDS011;24833;49.324;8.694;2023-08-30T09:06:38;3.72;;;2.53;;
38715;SDS011;24833;49.324;8.694;2023-08-30T09:09:11;3.10;;;2.90;;
38715;SDS011;24833;49.324;8.694;2023-08-30T09:11:38;5.10;;;3.35;;
38715;SDS011;24833;49.324;8.694;2023-08-30T09:14:16;2.50;;;2.30;;
38715;SDS011;24833;49.324;8.694;2023-08-30T09:19:41;2.75;;;2.50;;
38715;SDS011;24833;49.324;8.694;2023-08-30T09:22:08;3.00;;;2.70;;
38715;SDS011;24833;49.324;8.694;2023-08-30T09:24:38;2.70;;;2.50;;
38715;SDS011;24833;49.324;8.694;2023-08-30T09:27:07;2.97;;;2.70;;
38715;SDS011;24833;49.324;8.694;2023-08-30T09:29:34;2.38;;;2.15;;
38715;SDS011;24833;49.324;8.694;2023-08-30T09:32:01;2.85;;;2.40;;
38715;SDS011;24833;49.324;8.694;2023-08-30T09:34:28;2.53;;;2.28;;
38715;SDS011;24833;49.324;8.694;2023-08-30T09:36:55;2.47;;;2.28;;
38715;SDS011;24833;49.324;8.694;2023-08-30T09:39:25;2.43;;;2.23;;
38715;SDS011;24833;49.324;8.694;2023-08-30T09:41:53;2.60;;;2.40;;
38715;SDS011;24833;49.324;8.694;2023-08-30T09:44:21;4.07;;;2.40;;
38715;SDS011;24833;49.324;8.694;2023-08-30T09:46:51;2.83;;;2.47;;
38715;SDS011;24833;49.324;8.694;2023-08-30T09:49:24;3.40;;;2.88;;
38715;SDS011;24833;49.324;8.694;2023-08-30T09:51:53;2.92;;;2.72;;
38715;SDS011;24833;49.324;8.694;2023-08-30T09:54:44;3.28;;;2.38;;
38715;SDS011;24833;49.324;8.694;2023-08-30T09:57:13;2.53;;;2.17;;
38715;SDS011;24833;49.324;8.694;2023-08-30T09:59:41;3.05;;;2.10;;
38715;SDS011;24833;49.324;8.694;2023-08-30T10:02:09;2.65;;;2.30;;
38715;SDS011;24833;49.324;8.694;2023-08-30T10:04:39;3.33;;;2.47;;
38715;SDS011;24833;49.324;8.694;2023-08-30T10:07:10;3.10;;;2.50;;
38715;SDS011;24833;49.324;8.694;2023-08-30T10:09:38;2.45;;;2.17;;
38715;SDS011;24833;49.324;8.694;2023-08-30T10:12:26;2.45;;;2.25;;
38715;SDS011;24833;49.324;8.694;2023-08-30T10:14:53;1.98;;;1.88;;
38715;SDS011;24833;49.324;8.694;2023-08-30T10:17:23;2.13;;;1.92;;
38715;SDS011;24833;49.324;8.694;2023-08-30T10:19:58;2.47;;;1.83;;
38715;SDS011;24833;49.324;8.694;2023-08-30T10:22:30;1.75;;;1.65;;
38715;SDS011;24833;49.324;8.694;2023-08-30T10:25:15;2.00;;;1.80;;
38715;SDS011;24833;49.324;8.694;2023-08-30T10:27:48;1.95;;;1.75;;
38715;SDS011;24833;49.324;8.694;2023-08-30T10:30:17;1.90;;;1.80;;
38715;SDS011;24833;49.324;8.694;2023-08-30T10:32:46;1.92;;;1.80;;
38715;SDS011;24833;49.324;8.694;2023-08-30T10:35:14;3.78;;;2.03;;
38715;SDS011;24833;49.324;8.694;2023-08-30T10:37:54;3.03;;;2.10;;
38715;SDS011;24833;49.324;8.694;2023-08-30T10:40:23;2.25;;;1.90;;
38715;SDS011;24833;49.324;8.694;2023-08-30T10:43:02;1.80;;;1.70;;
38715;SDS011;24833;49.324;8.694;2023-08-30T10:45:30;2.50;;;1.48;;
38715;SDS011;24833;49.324;8.694;2023-08-30T10:47:59;1.80;;;1.70;;
38715;SDS011;24833;49.324;8.694;2023-08-30T10:50:27;2.03;;;1.73;;
38715;SDS011;24833;49.324;8.694;2023-08-30T10:52:57;2.15;;;1.63;;
38715;SDS011;24833;49.324;8.694;2023-08-30T10:55:25;2.22;;;1.92;;
38715;SDS011;24833;49.324;8.694;2023-08-30T10:58:02;2.53;;;1.88;;
38715;SDS011;24833;49.324;8.694;2023-08-30T11:00:31;1.95;;;1.60;;
38715;SDS011;24833;49.324;8.694;2023-08-30T11:02:58;1.67;;;1.58;;
38715;SDS011;24833;49.324;8.694;2023-08-30T11:05:26;2.10;;;1.58;;
38715;SDS011;24833;49.324;8.694;2023-08-30T11:07:54;1.75;;;1.60;;
38715;SDS011;24833;49.324;8.694;2023-08-30T11:10:21;1.55;;;1.45;;
38715;SDS011;24833;49.324;8.694;2023-08-30T11:12:48;4.30;;;2.20;;
38715;SDS011;24833;49.324;8.694;2023-08-30T11:15:16;2.00;;;1.80;;
38715;SDS011;24833;49.324;8.694;2023-08-30T11:17:44;1.75;;;1.60;;
38715;SDS011;24833;49.324;8.694;2023-08-30T11:20:13;3.85;;;1.45;;
38715;SDS011;24833;49.324;8.694;2023-08-30T11:22:44;1.75;;;1.50;;
38715;SDS011;24833;49.324;8.694;2023-08-30T11:25:13;1.53;;;1.43;;
38715;SDS011;24833;49.324;8.694;2023-08-30T11:27:43;1.80;;;1.58;;
38715;SDS011;24833;49.324;8.694;2023-08-30T11:30:10;1.60;;;1.38;;
38715;SDS011;24833;49.324;8.694;2023-08-30T11:32:38;1.75;;;1.65;;
38715;SDS011;24833;49.324;8.694;2023-08-30T11:35:09;1.42;;;1.17;;
38715;SDS011;24833;49.324;8.694;2023-08-30T11:37:37;1.48;;;1.38;;
38715;SDS011;24833;49.324;8.694;2023-08-30T11:40:06;1.80;;;1.65;;
38715;SDS011;24833;49.324;8.694;2023-08-30T11:42:33;6.45;;;1.55;;
38715;SDS011;24833;49.324;8.694;2023-08-30T11:45:01;1.95;;;1.17;;
38715;SDS011;24833;49.324;8.694;2023-08-30T11:47:29;1.58;;;1.20;;
38715;SDS011;24833;49.324;8.694;2023-08-30T11:49:56;1.25;;;1.10;;
38715;SDS011;24833;49.324;8.694;2023-08-30T11:52:25;1.30;;;1.20;;
38715;SDS011;24833;49.324;8.694;2023-08-30T11:54:53;1.40;;;1.27;;
38715;SDS011;24833;49.324;8.694;2023-08-30T11:57:21;1.88;;;1.25;;
38715;SDS011;24833;49.324;8.694;2023-08-30T11:59:48;2.25;;;1.60;;
38715;SDS011;24833;49.324;8.694;2023-08-30T12:02:17;2.10;;;1.40;;
38715;SDS011;24833;49.324;8.694;2023-08-30T12:04:45;2.78;;;1.38;;
38715;SDS011;24833;49.324;8.694;2023-08-30T12:07:23;1.38;;;1.25;;
38715;SDS011;24833;49.324;8.694;2023-08-30T12:09:52;2.42;;;1.50;;
38715;SDS011;24833;49.324;8.694;2023-08-30T12:12:37;1.08;;;0.98;;
38715;SDS011;24833;49.324;8.694;2023-08-30T12:15:08;1.50;;;1.40;;
38715;SDS011;24833;49.324;8.694;2023-08-30T12:17:40;1.10;;;1.00;;
38715;SDS011;24833;49.324;8.694;2023-08-30T12:20:14;2.70;;;1.45;;
38715;SDS011;24833;49.324;8.694;2023-08-30T12:22:43;2.97;;;1.33;;
38715;SDS011;24833;49.324;8.694;2023-08-30T12:25:17;2.67;;;1.40;;
38715;SDS011;24833;49.324;8.694;2023-08-30T12:27:53;1.38;;;1.08;;
38715;SDS011;24833;49.324;8.694;2023-08-30T12:30:20;1.65;;;1.27;;
38715;SDS011;24833;49.324;8.694;2023-08-30T12:32:47;1.60;;;1.25;;
38715;SDS011;24833;49.324;8.694;2023-08-30T12:35:15;1.70;;;1.45;;
38715;SDS011;24833;49.324;8.694;2023-08-30T12:37:42;1.92;;;1.48;;
38715;SDS011;24833;49.324;8.694;2023-08-30T12:40:09;1.13;;;1.02;;
38715;SDS011;24833;49.324;8.694;2023-08-30T12:42:37;1.27;;;1.13;;
38715;SDS011;24833;49.324;8.694;2023-08-30T12:45:04;1.20;;;1.10;;
38715;SDS011;24833;49.324;8.694;2023-08-30T12:47:33;1.30;;;1.20;;
38715;SDS011;24833;49.324;8.694;2023-08-30T12:50:01;1.60;;;1.20;;
38715;SDS011;24833;49.324;8.694;2023-08-30T12:52:28;1.58;;;1.27;;
38715;SDS011;24833;49.324;8.694;2023-08-30T12:54:55;1.25;;;1.10;;
38715;SDS011;24833;49.324;8.694;2023-08-30T12:57:22;1.48;;;1.38;;
38715;SDS011;24833;49.324;8.694;2023-08-30T12:59:49;3.50;;;1.33;;
38715;SDS011;24833;49.324;8.694;2023-08-30T13:02:16;1.25;;;1.08;;
38715;SDS011;24833;49.324;8.694;2023-08-30T13:04:43;3.15;;;1.50;;
38715;SDS011;24833;49.324;8.694;2023-08-30T13:07:10;1.52;;;1.10;;
38715;SDS011;24833;49.324;8.694;2023-08-30T13:09:37;1.38;;;1.27;;
38715;SDS011;24833;49.324;8.694;2023-08-30T13:12:04;1.35;;;1.25;;
38715;SDS011;24833;49.324;8.694;2023-08-30T13:14:32;2.35;;;1.40;;
38715;SDS011;24833;49.324;8.694;2023-08-30T13:16:59;1.23;;;1.13;;
38715;SDS011;24833;49.324;8.694;2023-08-30T13:19:26;1.00;;;1.00;;
38715;SDS011;24833;49.324;8.694;2023-08-30T13:21:53;1.00;;;1.00;;
38715;SDS011;24833;49.324;8.694;2023-08-30T13:24:21;1.00;;;0.90;;
38715;SDS011;24833;49.324;8.694;2023-08-30T13:26:48;1.65;;;1.45;;
38715;SDS011;24833;49.324;8.694;2023-08-30T13:29:15;1.67;;;1.40;;
38715;SDS011;24833;49.324;8.694;2023-08-30T13:31:42;1.33;;;1.20;;
38715;SDS011;24833;49.324;8.694;2023-08-30T13:34:09;1.52;;;1.13;;
38715;SDS011;24833;49.324;8.694;2023-08-30T13:36:36;1.10;;;1.00;;
38715;SDS011;24833;49.324;8.694;2023-08-30T13:39:05;0.85;;;0.85;;
38715;SDS011;24833;49.324;8.694;2023-08-30T13:41:32;1.05;;;1.02;;
38715;SDS011;24833;49.324;8.694;2023-08-30T13:44:00;1.45;;;1.20;;
38715;SDS011;24833;49.324;8.694;2023-08-30T13:46:30;1.27;;;1.17;;
38715;SDS011;24833;49.324;8.694;2023-08-30T13:48:57;3.25;;;1.23;;
38715;SDS011;24833;49.324;8.694;2023-08-30T13:51:25;1.33;;;1.05;;
38715;SDS011;24833;49.324;8.694;2023-08-30T13:53:53;1.30;;;1.20;;
38715;SDS011;24833;49.324;8.694;2023-08-30T13:56:20;1.45;;;1.30;;
38715;SDS011;24833;49.324;8.694;2023-08-30T13:58:47;1.27;;;1.17;;
38715;SDS011;24833;49.324;8.694;2023-08-30T14:01:14;1.45;;;1.02;;
38715;SDS011;24833;49.324;8.694;2023-08-30T14:03:43;1.35;;;1.25;;
38715;SDS011;24833;49.324;8.694;2023-08-30T14:06:10;1.35;;;1.15;;
38715;SDS011;24833;49.324;8.694;2023-08-30T14:08:37;1.92;;;1.08;;
38715;SDS011;24833;49.324;8.694;2023-08-30T14:11:04;1.63;;;1.08;;
38715;SDS011;24833;49.324;8.694;2023-08-30T14:13:32;1.98;;;1.35;;
38715;SDS011;24833;49.324;8.694;2023-08-30T14:16:00;1.35;;;1.00;;
38715;SDS011;24833;49.324;8.694;2023-08-30T14:18:29;1.15;;;0.88;;
38715;SDS011;24833;49.324;8.694;2023-08-30T14:20:57;2.00;;;1.10;;
38715;SDS011;24833;49.324;8.694;2023-08-30T14:23:26;1.05;;;0.98;;
38715;SDS011;24833;49.324;8.694;2023-08-30T14:25:57;1.45;;;0.93;;
38715;SDS011;24833;49.324;8.694;2023-08-30T14:28:26;2.47;;;1.00;;
38715;SDS011;24833;49.324;8.694;2023-08-30T14:30:54;2.45;;;1.02;;
38715;SDS011;24833;49.324;8.694;2023-08-30T14:33:21;1.20;;;1.10;;
38715;SDS011;24833;49.324;8.694;2023-08-30T14:35:48;2.00;;;1.23;;
38715;SDS011;24833;49.324;8.694;2023-08-30T14:38:15;1.30;;;1.20;;
38715;SDS011;24833;49.324;8.694;2023-08-30T14:40:42;1.05;;;1.05;;
38715;SDS011;24833;49.324;8.694;2023-08-30T14:43:09;1.25;;;1.15;;
38715;SDS011;24833;49.324;8.694;2023-08-30T14:45:36;1.27;;;1.17;;
38715;SDS011;24833;49.324;8.694;2023-08-30T14:48:03;1.00;;;1.00;;
38715;SDS011;24833;49.324;8.694;2023-08-30T14:50:30;8.35;;;1.15;;
38715;SDS011;24833;49.324;8.694;2023-08-30T14:52:57;1.10;;;0.88;;
38715;SDS011;24833;49.324;8.694;2023-08-30T14:55:24;0.88;;;0.82;;
38715;SDS011;24833;49.324;8.694;2023-08-30T14:57:52;1.50;;;1.00;;
38715;SDS011;24833;49.324;8.694;2023-08-30T15:00:20;1.27;;;1.00;;
38715;SDS011;24833;49.324;8.694;2023-08-30T15:02:47;1.25;;;1.15;;
38715;SDS011;24833;49.324;8.694;2023-08-30T15:05:14;1.73;;;1.17;;
38715;SDS011;24833;49.324;8.694;2023-08-30T15:07:41;1.10;;;0.90;;
38715;SDS011;24833;49.324;8.694;2023-08-30T15:10:09;1.33;;;0.90;;
38715;SDS011;24833;49.324;8.694;2023-08-30T15:12:37;1.10;;;1.00;;
38715;SDS011;24833;49.324;8.694;2023-08-30T15:15:04;2.65;;;1.45;;
38715;SDS011;24833;49.324;8.694;2023-08-30T15:17:32;1.55;;;0.98;;